createdAt,value
2022-08-20T00:02:15.187Z,21.28
2022-08-20T00:05:29.858Z,21.28
2022-08-20T00:08:33.061Z,21.34
2022-08-20T00:11:37.145Z,21.24
2022-08-20T00:14:40.371Z,21.27
2022-08-20T00:17:43.381Z,21.22
2022-08-20T00:20:49.291Z,21.34
2022-08-20T00:23:54.299Z,21.25
2022-08-20T00:26:56.986Z,21.20
2022-08-20T00:30:00.138Z,21.33
2022-08-20T00:33:06.712Z,21.26
2022-08-20T00:36:12.463Z,21.18
2022-08-20T00:39:15.157Z,21.43
2022-08-20T00:42:18.134Z,21.54
2022-08-20T00:45:23.955Z,21.44
2022-08-20T00:48:31.875Z,21.32
2022-08-20T00:51:45.496Z,21.29
2022-08-20T00:54:59.147Z,21.41
2022-08-20T00:58:10.007Z,21.50
2022-08-20T01:01:15.924Z,21.59
2022-08-20T01:04:19.083Z,21.15
2022-08-20T01:07:29.485Z,20.95
2022-08-20T01:10:40.287Z,20.82
2022-08-20T01:13:45.683Z,20.77
2022-08-20T01:16:51.852Z,20.77
2022-08-20T01:20:03.201Z,20.92
2022-08-20T01:23:32.864Z,20.91
2022-08-20T01:26:43.978Z,20.79
2022-08-20T01:29:48.072Z,20.88
2022-08-20T01:32:52.432Z,21.06
2022-08-20T01:35:56.370Z,20.94
2022-08-20T01:39:00.838Z,20.89
2022-08-20T01:42:17.809Z,20.85
2022-08-20T01:45:21.429Z,20.86
2022-08-20T01:48:30.154Z,20.87
2022-08-20T01:51:33.196Z,20.85
2022-08-20T01:54:36.229Z,21.08
2022-08-20T01:57:40.253Z,21.26
2022-08-20T02:00:43.423Z,21.10
2022-08-20T02:03:46.422Z,20.77
2022-08-20T02:06:58.004Z,20.68
2022-08-20T02:10:01.708Z,20.74
2022-08-20T02:13:05.749Z,20.86
2022-08-20T02:16:08.814Z,20.95
2022-08-20T02:19:21.459Z,21.03
2022-08-20T02:22:34.670Z,21.15
2022-08-20T02:25:41.153Z,21.14
2022-08-20T02:28:45.277Z,20.98
2022-08-20T02:32:23.611Z,20.90
2022-08-20T02:35:13.492Z,20.89
2022-08-20T02:38:16.689Z,20.79
2022-08-20T02:41:22.299Z,20.74
2022-08-20T02:44:25.442Z,20.83
2022-08-20T02:47:30.656Z,20.86
2022-08-20T02:50:33.680Z,20.84
2022-08-20T02:53:38.935Z,20.82
2022-08-20T02:56:42.762Z,20.92
2022-08-20T02:59:45.446Z,20.95
2022-08-20T03:02:48.871Z,20.96
2022-08-20T03:05:54.990Z,21.16
2022-08-20T03:08:58.064Z,21.29
2022-08-20T03:12:00.960Z,21.21
2022-08-20T03:15:05.064Z,21.10
2022-08-20T03:18:07.968Z,21.09
2022-08-20T03:21:14.824Z,21.03
2022-08-20T03:24:18.291Z,21.00
2022-08-20T03:27:22.045Z,20.83
2022-08-20T03:30:30.529Z,20.73
2022-08-20T03:33:34.168Z,20.74
2022-08-20T03:36:37.078Z,20.80
2022-08-20T03:39:40.480Z,20.96
2022-08-20T03:42:45.298Z,21.14
2022-08-20T03:45:48.384Z,21.08
2022-08-20T03:48:59.821Z,21.06
2022-08-20T03:52:05.395Z,21.06
2022-08-20T03:55:12.231Z,21.13
2022-08-20T03:58:17.626Z,21.05
2022-08-20T04:01:44.517Z,21.03
2022-08-20T04:04:44.522Z,21.19
2022-08-20T04:07:47.183Z,20.77
2022-08-20T04:10:51.422Z,20.56
2022-08-20T04:13:54.181Z,20.35
2022-08-20T04:16:57.765Z,20.39
2022-08-20T04:20:06.276Z,20.30
2022-08-20T04:23:09.981Z,20.19
2022-08-20T04:26:14.021Z,20.24
2022-08-20T04:29:17.046Z,20.36
2022-08-20T04:32:21.438Z,20.39
2022-08-20T04:35:24.827Z,20.39
2022-08-20T04:38:47.908Z,20.43
2022-08-20T04:41:51.467Z,20.50
2022-08-20T04:44:54.139Z,20.22
2022-08-20T04:48:05.929Z,20.17
2022-08-20T04:51:09.434Z,20.12
2022-08-20T04:54:13.982Z,20.16
2022-08-20T04:57:17.696Z,20.20
2022-08-20T05:00:20.613Z,20.27
2022-08-20T05:03:24.474Z,20.33
2022-08-20T05:06:32.152Z,20.43
2022-08-20T05:09:43.815Z,20.63
2022-08-20T05:12:56.817Z,20.62
2022-08-20T05:16:02.195Z,20.82
2022-08-20T05:19:07.021Z,20.96
2022-08-20T05:22:09.917Z,21.14
2022-08-20T05:25:13.207Z,20.98
2022-08-20T05:28:22.187Z,21.01
2022-08-20T05:31:32.357Z,20.96
2022-08-20T05:34:36.605Z,20.92
2022-08-20T05:37:43.810Z,20.77
2022-08-20T05:40:47.490Z,20.72
2022-08-20T05:43:51.592Z,20.70
2022-08-20T05:46:54.412Z,20.71
2022-08-20T05:49:57.703Z,20.67
2022-08-20T05:53:01.720Z,20.65
2022-08-20T05:56:04.924Z,20.64
2022-08-20T05:59:10.032Z,20.56
2022-08-20T06:02:31.537Z,20.55
2022-08-20T06:05:35.024Z,20.54
2022-08-20T06:08:38.274Z,20.51
2022-08-20T06:11:44.729Z,20.57
2022-08-20T06:14:47.527Z,20.66
2022-08-20T06:17:58.153Z,20.70
2022-08-20T06:21:02.473Z,20.78
2022-08-20T06:24:06.931Z,20.89
2022-08-20T06:27:15.884Z,20.94
2022-08-20T06:30:19.065Z,20.85
2022-08-20T06:33:23.873Z,20.79
2022-08-20T06:36:27.648Z,20.82
2022-08-20T06:39:31.477Z,20.82
2022-08-20T06:42:34.596Z,20.88
2022-08-20T06:45:39.088Z,20.92
2022-08-20T06:48:42.794Z,20.99
2022-08-20T06:51:45.763Z,20.99
2022-08-20T06:54:54.525Z,20.90
2022-08-20T06:58:03.014Z,20.89
2022-08-20T07:01:10.130Z,20.95
2022-08-20T07:04:13.142Z,20.93
2022-08-20T07:07:18.131Z,20.84
2022-08-20T07:10:22.811Z,20.84
2022-08-20T07:13:25.965Z,20.81
2022-08-20T07:16:29.715Z,20.79
2022-08-20T07:19:33.503Z,20.61
2022-08-20T07:22:37.149Z,20.50
2022-08-20T07:25:42.531Z,20.47
2022-08-20T07:28:46.001Z,20.47
2022-08-20T07:32:07.667Z,20.51
2022-08-20T07:35:18.579Z,20.50
2022-08-20T07:38:24.945Z,20.52
2022-08-20T07:41:27.720Z,20.53
2022-08-20T07:44:31.402Z,20.54
2022-08-20T07:47:36.302Z,20.46
2022-08-20T07:50:39.860Z,20.51
2022-08-20T07:53:42.684Z,20.51
2022-08-20T07:56:45.658Z,20.54
2022-08-20T07:59:49.025Z,20.53
2022-08-20T08:02:53.053Z,20.56
2022-08-20T08:05:57.276Z,20.59
2022-08-20T08:09:05.163Z,20.50
2022-08-20T08:12:08.309Z,20.56
2022-08-20T08:15:15.847Z,20.43
2022-08-20T08:18:31.920Z,20.46
2022-08-20T08:21:34.962Z,20.54
2022-08-20T08:24:39.705Z,20.56
2022-08-20T08:27:43.914Z,20.52
2022-08-20T08:30:49.353Z,20.52
2022-08-20T08:33:53.962Z,20.53
2022-08-20T08:36:59.149Z,20.57
2022-08-20T08:40:02.028Z,20.62
2022-08-20T08:43:08.353Z,20.64
2022-08-20T08:46:12.997Z,20.66
2022-08-20T08:49:23.485Z,20.71
2022-08-20T08:52:32.328Z,20.78
2022-08-20T08:55:35.861Z,20.74
2022-08-20T08:58:38.590Z,20.78
2022-08-20T09:01:54.914Z,20.82
2022-08-20T09:05:02.388Z,20.85
2022-08-20T09:08:12.590Z,20.84
2022-08-20T09:11:20.491Z,20.76
2022-08-20T09:14:25.193Z,20.67
2022-08-20T09:17:27.787Z,20.60
2022-08-20T09:20:31.427Z,20.46
2022-08-20T09:23:35.446Z,20.52
2022-08-20T09:26:39.257Z,20.45
2022-08-20T09:29:42.310Z,20.53
2022-08-20T09:32:46.591Z,20.56
2022-08-20T09:35:49.184Z,20.54
2022-08-20T09:38:52.653Z,20.50
2022-08-20T09:41:55.515Z,20.60
2022-08-20T09:44:59.980Z,20.77
2022-08-20T09:48:03.547Z,20.77
2022-08-20T09:51:06.666Z,20.79
2022-08-20T09:54:09.420Z,20.92
2022-08-20T09:57:13.234Z,21.04
2022-08-20T10:00:17.030Z,21.19
2022-08-20T10:03:20.389Z,21.31
2022-08-20T10:06:23.038Z,21.24
2022-08-20T10:09:26.140Z,21.31
2022-08-20T10:12:29.688Z,21.41
2022-08-20T10:15:32.814Z,21.54
2022-08-20T10:18:36.899Z,21.44
2022-08-20T10:21:40.408Z,21.47
2022-08-20T10:24:44.365Z,21.36
2022-08-20T10:27:48.799Z,21.32
2022-08-20T10:30:51.481Z,21.27
2022-08-20T10:33:55.277Z,21.25
2022-08-20T10:36:59.223Z,21.35
2022-08-20T10:40:02.661Z,21.32
2022-08-20T10:43:05.415Z,21.30
2022-08-20T10:46:10.951Z,21.26
2022-08-20T10:49:13.616Z,21.33
2022-08-20T10:52:16.677Z,21.46
2022-08-20T10:55:19.393Z,21.57
2022-08-20T10:58:23.925Z,21.64
2022-08-20T11:01:32.840Z,21.87
2022-08-20T11:04:37.300Z,22.19
2022-08-20T11:07:55.439Z,22.50
2022-08-20T11:10:59.614Z,23.22
2022-08-20T11:14:02.468Z,23.53
2022-08-20T11:17:06.157Z,23.50
2022-08-20T11:20:13.864Z,23.68
2022-08-20T11:23:19.012Z,23.50
2022-08-20T11:26:25.379Z,23.50
2022-08-20T11:29:33.833Z,23.55
2022-08-20T11:32:37.090Z,23.29
2022-08-20T11:35:48.283Z,23.13
2022-08-20T11:38:53.535Z,23.31
2022-08-20T11:41:56.522Z,23.07
2022-08-20T11:44:59.330Z,22.84
2022-08-20T11:48:02.299Z,22.69
2022-08-20T11:51:05.447Z,22.61
2022-08-20T11:54:08.433Z,22.35
2022-08-20T11:57:11.456Z,22.42
2022-08-20T12:00:21.509Z,22.32
2022-08-20T12:03:37.607Z,22.25
2022-08-20T12:06:40.530Z,22.31
2022-08-20T12:09:51.090Z,22.12
2022-08-20T12:12:55.391Z,22.05
2022-08-20T12:15:58.670Z,21.92
2022-08-20T12:19:01.386Z,21.92
2022-08-20T12:22:20.445Z,21.84
2022-08-20T12:25:27.254Z,21.94
2022-08-20T12:28:31.676Z,21.98
2022-08-20T12:31:34.416Z,22.17
2022-08-20T12:34:39.177Z,22.32
2022-08-20T12:37:42.898Z,22.40
2022-08-20T12:40:46.183Z,22.58
2022-08-20T12:43:49.415Z,22.58
2022-08-20T12:46:55.277Z,22.52
2022-08-20T12:50:08.137Z,22.55
2022-08-20T12:53:11.182Z,22.54
2022-08-20T12:56:14.273Z,22.39
2022-08-20T12:59:17.312Z,22.35
2022-08-20T13:02:20.145Z,22.47
2022-08-20T13:05:23.849Z,22.62
2022-08-20T13:08:26.572Z,22.67
2022-08-20T13:11:29.788Z,22.68
2022-08-20T13:14:32.580Z,22.79
2022-08-20T13:17:38.590Z,22.67
2022-08-20T13:20:42.065Z,22.65
2022-08-20T13:23:46.462Z,22.83
2022-08-20T13:26:49.919Z,22.61
2022-08-20T13:29:58.615Z,22.64
2022-08-20T13:33:02.254Z,22.59
2022-08-20T13:36:05.489Z,22.66
2022-08-20T13:39:08.346Z,22.77
2022-08-20T13:42:14.180Z,22.59
2022-08-20T13:45:17.605Z,22.76
2022-08-20T13:48:20.707Z,22.85
2022-08-20T13:51:27.225Z,23.03
2022-08-20T13:54:33.555Z,23.08
2022-08-20T13:57:38.460Z,23.01
2022-08-20T14:00:42.018Z,23.11
2022-08-20T14:03:46.719Z,23.17
2022-08-20T14:06:50.779Z,23.22
2022-08-20T14:09:58.978Z,23.31
2022-08-20T14:13:03.630Z,23.49
2022-08-20T14:16:06.702Z,23.36
2022-08-20T14:19:24.182Z,23.50
2022-08-20T14:22:27.576Z,23.56
2022-08-20T14:25:32.702Z,23.81
2022-08-20T14:28:35.681Z,23.66
2022-08-20T14:31:38.336Z,23.64
2022-08-20T14:34:42.567Z,23.66
2022-08-20T14:37:55.020Z,23.72
2022-08-20T14:40:58.211Z,23.57
2022-08-20T14:44:00.897Z,23.48
2022-08-20T14:47:22.675Z,23.26
2022-08-20T14:50:31.643Z,23.24
2022-08-20T14:53:39.831Z,23.28
2022-08-20T14:56:43.023Z,23.22
2022-08-20T14:59:47.084Z,23.28
2022-08-20T15:02:49.933Z,23.12
2022-08-20T15:05:53.162Z,23.13
2022-08-20T15:08:57.493Z,23.00
2022-08-20T15:12:00.625Z,23.06
2022-08-20T15:15:15.528Z,23.01
2022-08-20T15:18:25.215Z,22.93
2022-08-20T15:21:28.255Z,22.88
2022-08-20T15:24:31.474Z,22.79
2022-08-20T15:27:36.968Z,22.68
2022-08-20T15:30:41.857Z,22.58
2022-08-20T15:33:44.479Z,22.60
2022-08-20T15:36:47.510Z,22.51
2022-08-20T15:39:52.206Z,22.51
2022-08-20T15:42:55.554Z,22.45
2022-08-20T15:46:01.394Z,22.47
2022-08-20T15:49:04.819Z,22.31
2022-08-20T15:52:07.690Z,22.25
2022-08-20T15:55:14.817Z,22.25
2022-08-20T15:58:39.008Z,22.19
2022-08-20T16:02:01.443Z,22.24
2022-08-20T16:05:41.514Z,22.22
2022-08-20T16:09:32.647Z,22.22
2022-08-20T16:12:42.591Z,22.13
2022-08-20T16:15:49.459Z,22.19
2022-08-20T16:18:54.429Z,22.07
2022-08-20T16:21:58.491Z,22.03
2022-08-20T16:25:04.320Z,22.19
2022-08-20T16:28:33.061Z,22.20
2022-08-20T16:31:43.150Z,22.26
2022-08-20T16:34:59.246Z,22.24
2022-08-20T16:38:12.494Z,22.21
2022-08-20T16:41:21.268Z,22.17
2022-08-20T16:44:49.111Z,22.20
2022-08-20T16:47:57.388Z,22.13
2022-08-20T16:51:17.241Z,22.05
2022-08-20T16:54:29.300Z,22.02
2022-08-20T16:57:34.274Z,21.98
2022-08-20T17:00:44.844Z,21.97
2022-08-20T17:03:50.651Z,21.91
2022-08-20T17:06:53.606Z,21.79
2022-08-20T17:10:13.421Z,21.81
2022-08-20T17:13:16.162Z,21.77
2022-08-20T17:16:21.718Z,21.82
2022-08-20T17:19:31.281Z,21.81
2022-08-20T17:22:43.476Z,21.80
2022-08-20T17:25:56.627Z,21.82
2022-08-20T17:29:03.392Z,21.76
2022-08-20T17:32:16.719Z,21.67
2022-08-20T17:35:27.918Z,21.62
2022-08-20T17:39:06.071Z,21.68
2022-08-20T17:42:15.068Z,21.62
2022-08-20T17:45:44.154Z,21.65
2022-08-20T17:48:49.046Z,21.54
2022-08-20T17:51:55.289Z,21.34
2022-08-20T17:54:59.697Z,21.22
2022-08-20T17:58:06.984Z,21.19
2022-08-20T18:01:14.970Z,21.13
2022-08-20T18:04:18.125Z,21.13
2022-08-20T18:07:25.269Z,21.17
2022-08-20T18:10:29.890Z,21.32
2022-08-20T18:14:18.630Z,21.37
2022-08-20T18:17:49.368Z,21.46
2022-08-20T18:20:51.911Z,21.51
2022-08-20T18:24:18.790Z,21.52
2022-08-20T18:27:25.540Z,21.60
2022-08-20T18:30:28.622Z,21.66
2022-08-20T18:33:31.271Z,21.65
2022-08-20T18:36:35.720Z,21.68
2022-08-20T18:39:42.141Z,21.78
2022-08-20T18:42:45.527Z,21.86
2022-08-20T18:45:49.406Z,21.83
2022-08-20T18:49:01.717Z,21.60
2022-08-20T18:52:26.430Z,21.48
2022-08-20T18:55:37.098Z,21.38
2022-08-20T18:59:02.117Z,21.37
2022-08-20T19:02:20.756Z,21.33
2022-08-20T19:05:37.044Z,21.09
2022-08-20T19:08:50.316Z,21.04
2022-08-20T19:11:57.169Z,21.07
2022-08-20T19:15:24.202Z,21.13
2022-08-20T19:18:44.456Z,21.02
2022-08-20T19:21:48.368Z,20.90
2022-08-20T19:24:56.796Z,20.93
2022-08-20T19:28:04.813Z,20.90
2022-08-20T19:31:21.890Z,20.91
2022-08-20T19:34:26.549Z,20.81
2022-08-20T19:37:44.472Z,20.77
2022-08-20T19:41:08.894Z,20.76
2022-08-20T19:44:25.700Z,20.54
2022-08-20T19:47:38.627Z,20.52
2022-08-20T19:51:12.570Z,20.55
2022-08-20T19:54:28.120Z,20.55
2022-08-20T19:57:31.040Z,20.29
2022-08-20T20:00:44.959Z,20.32
2022-08-20T20:03:57.745Z,20.29
2022-08-20T20:07:00.654Z,20.13
2022-08-20T20:10:08.169Z,20.28
2022-08-20T20:13:15.147Z,20.38
2022-08-20T20:16:20.966Z,20.37
2022-08-20T20:19:27.203Z,20.42
2022-08-20T20:22:34.148Z,20.21
2022-08-20T20:25:43.905Z,20.16
2022-08-20T20:28:50.254Z,20.18
2022-08-20T20:31:56.861Z,20.15
2022-08-20T20:35:03.051Z,20.26
2022-08-20T20:38:10.277Z,20.32
2022-08-20T20:41:22.523Z,20.21
2022-08-20T20:44:37.718Z,20.31
2022-08-20T20:47:40.879Z,20.13
2022-08-20T20:50:43.677Z,20.02
2022-08-20T20:53:54.596Z,19.97
2022-08-20T20:57:37.744Z,20.10
2022-08-20T21:00:41.416Z,19.99
2022-08-20T21:03:44.085Z,20.08
2022-08-20T21:06:47.650Z,20.02
2022-08-20T21:09:52.366Z,19.97
2022-08-20T21:12:55.450Z,19.92
2022-08-20T21:15:58.376Z,19.82
2022-08-20T21:19:04.700Z,19.75
2022-08-20T21:22:07.443Z,19.71
2022-08-20T21:25:15.157Z,19.69
2022-08-20T21:28:18.008Z,19.60
2022-08-20T21:31:21.081Z,19.62
2022-08-20T21:34:23.861Z,19.62
2022-08-20T21:37:26.876Z,19.60
2022-08-20T21:40:29.644Z,19.66
2022-08-20T21:43:33.227Z,19.62
2022-08-20T21:46:35.969Z,19.45
2022-08-20T21:49:38.890Z,19.49
2022-08-20T21:52:43.962Z,19.56
2022-08-20T21:56:02.593Z,19.53
2022-08-20T21:59:08.826Z,19.55
2022-08-20T22:02:11.942Z,19.66
2022-08-20T22:05:16.507Z,19.79
2022-08-20T22:08:20.867Z,19.70
2022-08-20T22:11:28.878Z,19.65
2022-08-20T22:14:31.686Z,19.44
2022-08-20T22:17:34.703Z,19.54
2022-08-20T22:20:37.413Z,19.61
2022-08-20T22:23:40.705Z,19.55
2022-08-20T22:26:43.946Z,19.27
2022-08-20T22:29:47.008Z,19.49
2022-08-20T22:32:51.425Z,19.63
2022-08-20T22:35:58.841Z,19.71
2022-08-20T22:39:01.516Z,19.69
2022-08-20T22:42:04.744Z,19.57
2022-08-20T22:45:13.454Z,19.73
2022-08-20T22:48:20.329Z,19.81
2022-08-20T22:51:34.987Z,20.02
2022-08-20T22:54:39.158Z,19.92
2022-08-20T22:57:47.562Z,19.73
2022-08-20T23:00:51.512Z,19.80
2022-08-20T23:04:02.040Z,19.78
2022-08-20T23:07:09.191Z,19.83
2022-08-20T23:10:12.003Z,19.80
2022-08-20T23:13:14.978Z,19.91
2022-08-20T23:16:18.636Z,19.83
2022-08-20T23:19:22.887Z,19.79
2022-08-20T23:22:26.106Z,19.67
2022-08-20T23:25:29.135Z,19.61
2022-08-20T23:28:32.509Z,19.75
2022-08-20T23:31:35.516Z,19.80
2022-08-20T23:34:38.350Z,19.86
2022-08-20T23:37:45.410Z,19.78
2022-08-20T23:40:48.158Z,19.90
2022-08-20T23:43:51.467Z,19.94
2022-08-20T23:46:59.883Z,19.98
2022-08-20T23:50:03.888Z,20.00
2022-08-20T23:53:06.782Z,19.97
2022-08-20T23:56:10.786Z,19.97
2022-08-20T23:59:13.387Z,19.79
